Biggs Army Air Field (Fort Bliss)
KBIF : now visible

Airfield :











YOU CAN JOIN US ON...

 
LOGIN :

Register | Disclaimer

   EN    FR    IT 

 









Legend :    VFR   Marginal VFR   IFR   Intensive IFR   Very Intensive IFR
Visi :
Ceiling :
>= 8 km
>= 3000ft
5 to 8 km
1000 to 3000 ft
1500m to 5 km
500 to 1000 ft
800 to 1500m
200 to 500 ft
< 800m
< 200 ft
Symbols :   Thunderstorms  Fog  Heavy snow  Heavy precipitations  Wind > 20 kt







- Airport Elevation : 3946 ft


KBIF - Biggs Army Air Field (Fort Bliss)

CURRENT METAR :
  • 201558Z AUTO 16007KT 10SM FEW090 27/14 A3001 RMK AO2 SLP092 T02660141 $

EXPIRED METARs :
  • 201458Z AUTO 19010KT 10SM CLR 25/14 A2999 RMK AO2 SLP085 T02530142 52015 $
  • 201358Z AUTO 00000KT 10SM FEW100 22/15 A2997 RMK AO2 SLP081 T02200148 $

TAF TAF KBIF
Valid from the 20 at 14:00 until the 21 at 20:00 UTC


201400Z 2014/2120 VRB06KT 9999 SCT080 QNH2995INS
BECMG 2019/2020 23012KT 9999 SCT100 QNH2990INS
BECMG 2101/2102 VRB06KT 9999 SCT100 QNH2995INS
BECMG 2107/2108 VRB06KT 9999 BKN080 QNH3000INS TX32/2021Z TN21/2113Z
No reported NOTAMs for that airfield.



MET'MAP, your aeronautical weather chart ! - Copyright ORBIFLY December 2007 - Disclaimer

ORBIFLY MET'MAP TEAM :

Programming & Development : Alexandra Zaïnal
Concept & Development : Baudouin d'Aumeries
Co-Development & Prog : Marc-Olivier Méhu
Technical & hardware support : Manuel Goepfert

Contact : metmap@orbifly.com




SOURCES & CREDITS :

   NOAA       Earth
Advisory